Time;durP1;ratioP1;P1;durP2;ratioP2;P2;SDS_P1;SDS_P2;PMS_P1;PMS_P2;Temp;Humidity;BMP_temperature;BMP_pressure;BME280_temperature;BME280_humidity;BME280_pressure;Samples;Min_cycle;Max_cycle;Signal;HPM_P1;HPM_P2
2023/04/30 00:00:30;;;;;;;7.37;3.90;;;;;;;17.78;47.73;99421.87;4490180;31;35394;-64
2023/04/30 00:02:58;;;;;;;6.70;3.47;;;;;;;17.72;47.77;99423.38;4489817;31;34190;-62
2023/04/30 00:05:25;;;;;;;8.57;4.30;;;;;;;17.75;47.63;99417.59;4498561;31;33651;-61
2023/04/30 00:07:53;;;;;;;6.62;3.78;;;;;;;17.80;47.49;99417.97;4483717;31;33730;-61
2023/04/30 00:10:20;;;;;;;6.25;3.50;;;;;;;17.77;47.08;99420.19;4489672;31;33698;-60
2023/04/30 00:12:48;;;;;;;5.53;2.55;;;;;;;17.78;46.82;99417.28;4491431;31;34963;-61
2023/04/30 00:15:15;;;;;;;4.90;3.20;;;;;;;17.85;46.48;99407.50;4484672;31;35163;-60
2023/04/30 00:17:43;;;;;;;6.07;3.40;;;;;;;17.81;46.44;99419.66;4489046;31;35002;-64
2023/04/30 00:20:11;;;;;;;10.07;5.03;;;;;;;17.84;46.39;99422.03;4488641;31;33966;-68
2023/04/30 00:22:39;;;;;;;5.32;3.42;;;;;;;17.74;46.61;99415.06;4481873;31;32916;-63
2023/04/30 00:25:08;;;;;;;8.05;3.50;;;;;;;17.61;46.77;99421.81;4490255;31;33400;-63
2023/04/30 00:27:35;;;;;;;10.63;5.03;;;;;;;17.64;46.55;99423.34;4491921;31;33688;-63
2023/04/30 00:30:06;;;;;;;6.47;4.25;;;;;;;17.57;46.49;99419.63;4484890;31;33232;-63
2023/04/30 00:32:34;;;;;;;7.95;3.97;;;;;;;17.53;46.49;99420.97;4496159;31;33161;-63
2023/04/30 00:35:02;;;;;;;7.78;4.87;;;;;;;17.51;46.63;99421.13;4491242;31;33522;-64
2023/04/30 00:37:30;;;;;;;9.38;4.30;;;;;;;17.33;47.18;99420.41;4495473;31;33668;-63
2023/04/30 00:39:57;;;;;;;7.80;4.50;;;;;;;17.15;47.41;99421.41;4493754;31;34013;-62
2023/04/30 00:42:25;;;;;;;8.85;4.82;;;;;;;17.23;47.42;99417.88;4494767;31;33694;-63
2023/04/30 00:44:52;;;;;;;6.15;3.42;;;;;;;17.33;47.23;99418.56;4490808;31;34388;-64
2023/04/30 00:47:20;;;;;;;7.70;4.50;;;;;;;17.38;47.05;99420.78;4490662;31;35258;-63
2023/04/30 00:49:47;;;;;;;6.10;3.53;;;;;;;17.39;47.04;99415.19;4487550;31;33831;-64
2023/04/30 00:52:15;;;;;;;12.23;4.55;;;;;;;17.40;46.88;99411.50;4497347;31;34947;-63
2023/04/30 00:54:43;;;;;;;7.12;4.18;;;;;;;17.16;47.38;99412.28;4495186;31;32244;-62
2023/04/30 00:57:12;;;;;;;5.82;3.28;;;;;;;17.18;47.49;99414.84;4497216;31;33686;-62
2023/04/30 00:59:40;;;;;;;5.53;2.95;;;;;;;17.25;47.58;99409.59;4491575;31;35013;-62
2023/04/30 01:02:08;;;;;;;5.85;3.83;;;;;;;16.02;50.70;99409.00;4486896;31;34911;-63
2023/04/30 01:04:36;;;;;;;6.43;3.65;;;;;;;16.68;49.06;99408.34;4487295;31;34918;-62
2023/04/30 01:07:04;;;;;;;8.73;4.40;;;;;;;15.89;51.32;99411.22;4488482;31;33774;-62
2023/04/30 01:09:32;;;;;;;7.75;4.72;;;;;;;16.52;49.71;99405.56;4480738;31;34268;-63
2023/04/30 01:12:25;;;;;;;7.15;3.97;;;;;;;16.00;51.09;99402.91;4486247;31;32812;-62
2023/04/30 01:15:05;;;;;;;6.87;4.72;;;;;;;16.51;49.69;99412.84;4497816;31;33097;-62
2023/04/30 01:17:51;;;;;;;5.30;3.60;;;;;;;16.26;50.09;99411.00;4494109;31;33595;-63
2023/04/30 01:20:19;;;;;;;4.95;2.87;;;;;;;16.35;49.93;99420.00;4483774;31;32892;-64
2023/04/30 01:23:08;;;;;;;4.78;3.17;;;;;;;16.41;49.25;99419.38;4479503;31;33084;-61
2023/04/30 01:25:39;;;;;;;9.07;4.57;;;;;;;16.49;48.98;99419.41;4484030;31;33234;-61
2023/04/30 01:28:18;;;;;;;4.32;2.97;;;;;;;16.48;49.10;99410.47;4486338;31;33025;-61
2023/04/30 01:30:46;;;;;;;19.15;3.30;;;;;;;16.57;48.76;99408.66;4495470;31;34885;-61
2023/04/30 01:33:13;;;;;;;8.13;3.87;;;;;;;16.48;48.87;99407.75;4487757;31;35332;-61
2023/04/30 01:36:02;;;;;;;6.87;4.43;;;;;;;16.43;49.00;99418.19;4495289;31;34308;-61
2023/04/30 01:38:36;;;;;;;6.87;3.87;;;;;;;16.64;48.44;99414.25;4481430;31;33737;-61
2023/04/30 01:41:25;;;;;;;5.25;3.40;;;;;;;16.65;48.40;99416.78;4481050;31;34081;-62
2023/04/30 01:44:09;;;;;;;12.35;4.05;;;;;;;16.58;48.50;99406.78;4490629;31;34010;-61
2023/04/30 01:46:37;;;;;;;6.70;4.03;;;;;;;16.66;48.31;99417.62;4492626;31;33583;-62
2023/04/30 01:49:49;;;;;;;6.20;4.05;;;;;;;16.64;48.41;99419.66;4496948;31;34556;-61
2023/04/30 01:52:22;;;;;;;6.12;3.53;;;;;;;16.72;48.04;99415.13;4458257;31;34015;-61
2023/04/30 01:55:13;;;;;;;5.25;3.47;;;;;;;16.70;48.14;99416.31;4487408;31;35749;-61
2023/04/30 01:57:45;;;;;;;5.32;3.45;;;;;;;16.50;48.60;99421.09;4488229;31;33680;-61
2023/04/30 02:00:13;;;;;;;4.85;3.00;;;;;;;16.57;48.45;99424.03;4492453;31;32689;-62
2023/04/30 02:02:41;;;;;;;6.20;3.22;;;;;;;16.42;48.67;99423.75;4487747;31;35158;-61
2023/04/30 02:05:09;;;;;;;4.45;2.83;;;;;;;16.40;48.66;99420.34;4492864;31;32440;-61
2023/04/30 02:07:39;;;;;;;4.07;2.60;;;;;;;16.40;48.77;99426.59;4483547;31;33728;-62
2023/04/30 02:10:08;;;;;;;6.20;4.20;;;;;;;16.54;48.32;99428.72;4478305;31;33834;-63
2023/04/30 02:12:36;;;;;;;7.00;3.75;;;;;;;16.40;48.48;99418.50;4482472;31;33948;-61
2023/04/30 02:15:04;;;;;;;5.22;3.22;;;;;;;16.20;48.98;99425.97;4483923;31;32686;-62
2023/04/30 02:17:32;;;;;;;5.93;3.55;;;;;;;16.28;48.88;99420.66;4488760;31;33613;-61
2023/04/30 02:19:59;;;;;;;5.10;2.62;;;;;;;16.41;48.59;99419.38;4496207;31;33576;-61
2023/04/30 02:22:27;;;;;;;8.02;4.00;;;;;;;16.46;48.59;99425.12;4488537;31;35088;-61
2023/04/30 02:24:56;;;;;;;6.50;3.40;;;;;;;16.46;48.57;99422.41;4482313;31;32865;-61
2023/04/30 02:27:27;;;;;;;7.30;3.75;;;;;;;16.42;48.68;99421.06;4491041;31;33479;-61
2023/04/30 02:29:55;;;;;;;6.28;4.15;;;;;;;16.41;48.35;99422.91;4484924;31;33609;-61
2023/04/30 02:32:23;;;;;;;8.80;4.53;;;;;;;16.37;48.68;99420.69;4484620;31;33959;-61
2023/04/30 02:34:50;;;;;;;5.68;3.37;;;;;;;16.32;48.41;99426.56;4495541;31;34739;-61
2023/04/30 02:37:18;;;;;;;5.80;3.05;;;;;;;16.21;48.58;99427.69;4492893;31;33501;-62
2023/04/30 02:39:46;;;;;;;8.52;3.67;;;;;;;16.22;48.53;99426.69;4495457;31;34916;-62
2023/04/30 02:42:14;;;;;;;6.78;3.75;;;;;;;16.24;48.46;99426.50;4493407;31;33657;-61
2023/04/30 02:44:42;;;;;;;6.82;3.25;;;;;;;16.29;48.42;99429.59;4486428;31;34901;-64
2023/04/30 02:47:09;;;;;;;5.55;3.22;;;;;;;16.19;48.80;99435.09;4490021;31;34455;-62
2023/04/30 02:49:37;;;;;;;7.57;4.65;;;;;;;16.13;48.96;99427.63;4495811;31;34952;-62
2023/04/30 02:52:08;;;;;;;6.82;3.92;;;;;;;16.16;48.91;99432.72;4488782;31;33880;-62
2023/04/30 02:54:36;;;;;;;10.43;4.87;;;;;;;16.12;48.84;99434.03;4490724;31;34122;-62
2023/04/30 02:57:03;;;;;;;7.47;3.65;;;;;;;16.24;48.62;99443.56;4495457;31;33439;-62
2023/04/30 02:59:31;;;;;;;6.40;4.18;;;;;;;16.33;48.52;99443.63;4483902;31;33590;-63
2023/04/30 03:01:58;;;;;;;7.72;4.43;;;;;;;16.25;48.70;99450.66;4490812;31;33975;-62
2023/04/30 03:04:26;;;;;;;7.37;5.82;;;;;;;16.36;48.25;99446.84;4490575;31;34974;-62
2023/04/30 03:06:53;;;;;;;11.32;6.07;;;;;;;16.28;48.41;99444.94;4485858;31;33727;-62
2023/04/30 03:09:21;;;;;;;9.50;5.93;;;;;;;16.16;49.17;99450.75;4493344;31;34979;-62
2023/04/30 03:11:48;;;;;;;7.68;4.95;;;;;;;15.79;50.39;99447.28;4488515;31;34621;-63
2023/04/30 03:14:16;;;;;;;9.30;4.75;;;;;;;15.96;50.24;99444.72;4482153;31;34088;-62
2023/04/30 03:16:44;;;;;;;11.70;4.90;;;;;;;16.14;49.72;99442.81;4481582;31;34384;-63
2023/04/30 03:19:11;;;;;;;6.87;5.12;;;;;;;16.08;50.20;99446.13;4488999;31;33713;-62
2023/04/30 03:21:40;;;;;;;7.03;5.10;;;;;;;15.66;51.24;99443.22;4496910;31;33967;-64
2023/04/30 03:24:07;;;;;;;7.25;4.62;;;;;;;16.07;50.12;99437.19;4495726;31;33934;-62
2023/04/30 03:26:34;;;;;;;8.75;5.40;;;;;;;16.06;50.22;99440.06;4496046;31;32550;-64
2023/04/30 03:29:02;;;;;;;7.62;4.80;;;;;;;16.08;49.81;99440.72;4491013;31;33697;-62
2023/04/30 03:31:30;;;;;;;9.45;5.53;;;;;;;16.17;49.89;99453.28;4485531;31;34910;-62
2023/04/30 03:33:57;;;;;;;10.18;6.40;;;;;;;16.18;49.77;99443.34;4487589;31;32886;-63
2023/04/30 03:36:26;;;;;;;9.50;5.03;;;;;;;16.17;49.84;99447.88;4487742;31;34523;-62
2023/04/30 03:38:53;;;;;;;9.85;5.93;;;;;;;16.20;49.96;99444.87;4490915;31;34569;-62
2023/04/30 03:41:22;;;;;;;12.43;6.65;;;;;;;15.60;51.59;99448.25;4487918;31;33612;-62
2023/04/30 03:43:49;;;;;;;9.25;4.40;;;;;;;15.74;51.22;99443.34;4482471;31;34076;-63
2023/04/30 03:46:17;;;;;;;11.52;5.87;;;;;;;16.09;50.56;99453.25;4483441;31;33773;-62
2023/04/30 03:48:45;;;;;;;8.43;5.47;;;;;;;16.09;50.46;99450.56;4491935;31;33894;-64
2023/04/30 03:51:13;;;;;;;7.55;4.37;;;;;;;16.32;49.64;99456.28;4484066;31;33763;-62
2023/04/30 03:53:40;;;;;;;14.63;6.40;;;;;;;15.89;51.04;99452.59;4481382;31;32950;-63
2023/04/30 03:56:08;;;;;;;10.77;5.15;;;;;;;16.05;50.75;99446.44;4486059;31;33350;-62
2023/04/30 03:58:36;;;;;;;14.38;6.20;;;;;;;16.21;50.41;99443.03;4481653;31;33653;-62
2023/04/30 04:01:03;;;;;;;23.42;6.80;;;;;;;16.17;50.99;99450.59;4487691;31;33846;-62
2023/04/30 04:03:34;;;;;;;11.35;5.90;;;;;;;16.16;51.50;99458.88;4491434;31;34146;-62
2023/04/30 04:06:01;;;;;;;8.82;4.75;;;;;;;16.03;52.02;99460.13;4493426;31;33457;-64
2023/04/30 04:08:29;;;;;;;6.87;4.97;;;;;;;15.96;52.16;99472.53;4485158;31;33832;-62
2023/04/30 04:10:57;;;;;;;7.05;4.47;;;;;;;16.07;51.98;99471.44;4491301;31;34088;-62
2023/04/30 04:13:24;;;;;;;8.98;6.20;;;;;;;15.91;52.73;99474.84;4486944;31;32779;-63
2023/04/30 04:15:52;;;;;;;10.32;6.87;;;;;;;15.89;52.76;99481.41;4489000;31;34773;-63
2023/04/30 04:18:20;;;;;;;11.30;5.82;;;;;;;15.89;53.57;99482.28;4487043;31;34974;-62
2023/04/30 04:20:47;;;;;;;14.18;6.37;;;;;;;16.15;52.83;99476.91;4490610;31;93521;-61
2023/04/30 04:23:15;;;;;;;9.73;6.03;;;;;;;15.80;54.01;99484.03;4489287;31;34839;-61
2023/04/30 04:25:43;;;;;;;9.85;6.62;;;;;;;16.05;53.81;99485.13;4483690;31;33356;-61
2023/04/30 04:28:11;;;;;;;13.07;6.50;;;;;;;16.21;53.83;99487.09;4486827;31;33369;-60
2023/04/30 04:30:39;;;;;;;18.65;7.47;;;;;;;16.10;54.45;99494.59;4489593;31;33983;-61
2023/04/30 04:33:08;;;;;;;10.50;7.12;;;;;;;15.58;56.14;99496.09;4489215;31;33995;-60
2023/04/30 04:35:35;;;;;;;13.15;6.32;;;;;;;15.47;56.74;99499.00;4487820;31;32322;-60
2023/04/30 04:38:03;;;;;;;12.95;6.55;;;;;;;15.65;56.79;99492.78;4492036;31;33600;-63
2023/04/30 04:40:31;;;;;;;10.48;6.57;;;;;;;15.32;58.03;99504.09;4490578;31;34873;-62
2023/04/30 04:42:59;;;;;;;9.98;6.25;;;;;;;15.37;58.33;99511.69;4483739;31;35045;-63
2023/04/30 04:45:26;;;;;;;13.07;6.43;;;;;;;15.49;58.16;99507.78;4492376;31;33645;-62
2023/04/30 04:47:54;;;;;;;10.98;6.70;;;;;;;15.22;59.35;99507.84;4487264;31;33623;-64
2023/04/30 04:50:22;;;;;;;13.10;8.07;;;;;;;15.43;58.72;99508.41;4482836;31;33867;-64
2023/04/30 04:52:49;;;;;;;9.05;6.28;;;;;;;15.10;60.17;99507.19;4495379;31;33878;-65
2023/04/30 04:55:17;;;;;;;9.13;4.93;;;;;;;15.39;59.42;99512.41;4494021;31;33313;-63
2023/04/30 04:57:45;;;;;;;10.38;5.82;;;;;;;15.22;60.16;99515.94;4497436;31;33381;-63
2023/04/30 05:00:13;;;;;;;8.77;5.47;;;;;;;15.07;61.27;99518.25;4493265;31;34142;-64
2023/04/30 05:02:41;;;;;;;12.48;7.45;;;;;;;14.70;62.55;99511.00;4491163;31;34205;-62
2023/04/30 05:05:09;;;;;;;8.90;6.37;;;;;;;13.88;66.18;99519.63;4489849;31;33403;-63
2023/04/30 05:07:37;;;;;;;11.57;5.75;;;;;;;13.90;66.73;99523.00;4486738;31;34917;-62
2023/04/30 05:10:06;;;;;;;9.93;6.47;;;;;;;14.24;65.66;99530.66;4494026;31;32813;-62
2023/04/30 05:12:33;;;;;;;10.00;6.30;;;;;;;14.28;65.65;99537.44;4493379;31;34052;-62
2023/04/30 05:15:01;;;;;;;11.23;7.07;;;;;;;14.06;66.47;99531.38;4493894;31;33430;-62
2023/04/30 05:17:29;;;;;;;8.30;6.03;;;;;;;14.02;66.48;99531.78;4494388;31;33629;-63
2023/04/30 05:19:57;;;;;;;12.88;5.93;;;;;;;14.28;65.57;99543.66;4496357;31;33871;-63
2023/04/30 05:22:24;;;;;;;15.35;4.60;;;;;;;14.94;63.14;99545.53;4492187;31;34043;-62
2023/04/30 05:24:52;;;;;;;7.90;5.03;;;;;;;14.75;63.64;99551.00;4482950;31;34096;-62
2023/04/30 05:27:19;;;;;;;9.95;5.65;;;;;;;14.94;63.07;99545.53;4493194;31;33418;-62
2023/04/30 05:29:47;;;;;;;26.12;6.37;;;;;;;14.94;62.96;99555.47;4487957;31;35135;-62
2023/04/30 05:32:14;;;;;;;10.50;6.68;;;;;;;14.89;63.03;99547.81;4481046;31;33602;-62
2023/04/30 05:34:42;;;;;;;10.15;5.50;;;;;;;14.57;63.90;99551.72;4485244;31;33284;-62
2023/04/30 05:37:11;;;;;;;12.07;6.70;;;;;;;14.82;63.17;99557.50;4490933;31;33913;-64
2023/04/30 05:39:39;;;;;;;12.15;6.37;;;;;;;14.49;64.07;99558.81;4489491;31;34430;-66
2023/04/30 05:42:07;;;;;;;10.93;5.15;;;;;;;14.63;63.36;99553.00;4483801;31;33870;-62
2023/04/30 05:44:34;;;;;;;8.40;6.28;;;;;;;14.50;64.25;99560.50;4482891;31;33214;-63
2023/04/30 05:47:02;;;;;;;9.45;6.62;;;;;;;14.19;65.66;99553.47;4486549;31;33975;-63
2023/04/30 05:49:29;;;;;;;10.50;5.87;;;;;;;14.73;64.07;99563.75;4496882;31;33874;-63
2023/04/30 05:51:58;;;;;;;17.42;6.30;;;;;;;14.96;63.36;99569.63;4486898;31;34334;-63
2023/04/30 05:54:26;;;;;;;9.80;6.68;;;;;;;15.72;60.94;99562.19;4489002;31;32542;-63
2023/04/30 05:56:53;;;;;;;7.47;4.82;;;;;;;15.34;61.46;99557.84;4487476;31;33793;-63
2023/04/30 05:59:20;;;;;;;8.13;4.85;;;;;;;15.89;59.78;99565.94;4495321;31;33845;-63
2023/04/30 06:01:48;;;;;;;9.52;5.82;;;;;;;15.29;61.63;99552.91;4495262;31;34001;-63
2023/04/30 06:04:16;;;;;;;7.18;4.10;;;;;;;15.46;61.42;99567.44;4491460;31;33610;-62
2023/04/30 06:06:43;;;;;;;8.23;5.05;;;;;;;15.58;60.77;99560.84;4495870;31;33913;-63
2023/04/30 06:09:11;;;;;;;8.13;4.37;;;;;;;15.57;60.38;99556.47;4497904;31;33807;-63
2023/04/30 06:11:39;;;;;;;9.32;6.12;;;;;;;15.85;59.82;99575.31;4500476;31;33974;-63
2023/04/30 06:14:09;;;;;;;10.25;6.93;;;;;;;15.72;59.99;99562.19;4489097;31;31836;-63
2023/04/30 06:16:37;;;;;;;8.15;5.60;;;;;;;15.57;60.87;99571.81;4482351;31;32586;-63
2023/04/30 06:19:04;;;;;;;6.82;5.10;;;;;;;16.05;59.88;99566.09;4491316;31;34228;-63
2023/04/30 06:21:32;;;;;;;9.63;6.07;;;;;;;15.80;60.24;99564.16;4482880;31;33974;-63
2023/04/30 06:23:59;;;;;;;7.85;4.57;;;;;;;16.03;59.94;99561.84;4489353;31;33481;-62
2023/04/30 06:26:27;;;;;;;7.45;5.37;;;;;;;15.65;61.03;99565.63;4498895;31;33538;-63
2023/04/30 06:28:54;;;;;;;7.25;5.47;;;;;;;16.24;59.31;99566.91;4493890;31;34548;-63
2023/04/30 06:31:22;;;;;;;7.18;4.55;;;;;;;15.93;60.53;99572.72;4498013;31;34054;-63
2023/04/30 06:33:50;;;;;;;10.23;5.95;;;;;;;16.47;58.42;99570.00;4487676;31;34450;-62
2023/04/30 06:36:18;;;;;;;7.45;4.47;;;;;;;16.64;57.96;99558.31;4497320;31;33890;-62
2023/04/30 06:38:46;;;;;;;11.05;4.43;;;;;;;17.04;56.32;99562.28;4490229;31;33963;-63
2023/04/30 06:41:15;;;;;;;16.62;5.47;;;;;;;16.74;56.90;99559.03;4488220;31;33834;-63
2023/04/30 06:43:42;;;;;;;8.27;5.07;;;;;;;17.08;57.18;99579.03;4494676;31;34160;-63
2023/04/30 06:46:10;;;;;;;9.40;4.78;;;;;;;16.99;56.36;99561.94;4494859;31;33636;-63
2023/04/30 06:48:38;;;;;;;8.10;5.75;;;;;;;17.04;56.81;99564.16;4488202;31;33639;-63
2023/04/30 06:51:05;;;;;;;8.27;4.93;;;;;;;16.99;56.44;99572.75;4498975;31;34561;-63
2023/04/30 06:53:36;;;;;;;9.93;6.60;;;;;;;16.56;56.93;99570.91;4490563;31;32751;-63
2023/04/30 06:56:04;;;;;;;10.10;6.03;;;;;;;16.35;57.74;99565.84;4491538;31;33704;-63
2023/04/30 06:58:31;;;;;;;8.77;5.62;;;;;;;17.08;55.47;99573.63;4489412;31;35114;-63
2023/04/30 07:00:59;;;;;;;9.82;4.60;;;;;;;16.96;55.76;99570.38;4488624;31;33122;-64
2023/04/30 07:03:28;;;;;;;8.05;4.85;;;;;;;17.18;55.07;99574.37;4490808;31;34061;-63
2023/04/30 07:05:56;;;;;;;9.50;5.12;;;;;;;17.15;55.41;99570.12;4486889;31;32667;-63
2023/04/30 07:08:23;;;;;;;7.93;5.07;;;;;;;17.57;54.08;99573.87;4484917;31;33812;-64
2023/04/30 07:10:51;;;;;;;5.70;3.65;;;;;;;17.30;55.36;99574.94;4498585;31;33681;-64
2023/04/30 07:13:18;;;;;;;13.50;5.62;;;;;;;16.99;55.63;99579.00;4497316;31;32504;-64
2023/04/30 07:15:46;;;;;;;5.87;3.67;;;;;;;16.90;55.63;99574.56;4483175;31;33935;-62
2023/04/30 07:18:15;;;;;;;7.87;4.93;;;;;;;17.57;54.30;99568.47;4491070;31;33891;-64
2023/04/30 07:20:42;;;;;;;6.45;4.47;;;;;;;17.19;55.00;99568.81;4496691;31;33492;-63
2023/04/30 07:23:09;;;;;;;7.03;4.47;;;;;;;17.75;53.87;99574.59;4489099;31;34490;-63
2023/04/30 07:25:38;;;;;;;8.38;4.45;;;;;;;17.78;53.43;99570.75;4492415;31;33890;-63
2023/04/30 07:28:05;;;;;;;7.50;4.28;;;;;;;17.69;54.48;99575.28;4488533;31;34100;-63
2023/04/30 07:30:33;;;;;;;10.13;4.45;;;;;;;17.37;53.89;99571.44;4488383;31;34031;-63
2023/04/30 07:33:00;;;;;;;10.20;4.78;;;;;;;17.98;53.09;99574.87;4497627;31;34607;-63
2023/04/30 07:35:28;;;;;;;8.00;4.62;;;;;;;17.78;52.71;99571.59;4491868;31;35070;-64
2023/04/30 07:37:55;;;;;;;8.18;5.62;;;;;;;17.87;52.48;99570.59;4494896;31;33607;-63
2023/04/30 07:40:23;;;;;;;6.62;4.55;;;;;;;17.88;52.50;99571.44;4498124;31;34145;-63
2023/04/30 07:43:03;;;;;;;6.72;3.37;;;;;;;17.78;52.32;99568.88;4486115;31;33637;-64
2023/04/30 07:45:32;;;;;;;7.28;4.10;;;;;;;18.38;50.83;99574.03;4494212;31;32600;-64
2023/04/30 07:48:00;;;;;;;5.45;3.42;;;;;;;18.07;50.37;99578.41;4490270;31;33340;-63
2023/04/30 07:50:32;;;;;;;7.32;3.20;;;;;;;18.38;49.76;99576.75;4492541;31;33953;-64
2023/04/30 07:53:00;;;;;;;6.00;3.75;;;;;;;18.32;50.13;99577.44;4497492;31;34505;-63
2023/04/30 07:55:28;;;;;;;7.57;3.62;;;;;;;18.34;49.72;99579.97;4493088;31;34118;-64
2023/04/30 07:57:55;;;;;;;12.48;4.87;;;;;;;18.88;48.67;99576.78;4490587;31;34777;-64
2023/04/30 08:00:25;;;;;;;7.80;3.78;;;;;;;18.67;49.85;99578.09;4488964;31;35623;-63
2023/04/30 08:02:52;;;;;;;6.72;4.57;;;;;;;18.82;49.29;99583.72;4484429;31;33462;-64
2023/04/30 08:05:20;;;;;;;8.05;5.47;;;;;;;18.41;50.69;99574.72;4495005;31;33543;-63
2023/04/30 08:07:47;;;;;;;10.70;5.93;;;;;;;18.78;50.55;99569.66;4494933;31;33697;-64
2023/04/30 08:10:15;;;;;;;7.07;3.05;;;;;;;19.21;49.18;99572.09;4498203;31;34143;-63
2023/04/30 08:12:43;;;;;;;6.18;3.85;;;;;;;19.56;47.67;99570.78;4490375;31;34789;-63
2023/04/30 08:15:11;;;;;;;6.70;2.87;;;;;;;19.10;47.99;99565.19;4489847;31;33870;-63
2023/04/30 08:17:38;;;;;;;5.32;3.40;;;;;;;18.48;48.86;99578.47;4493331;31;32746;-64
2023/04/30 08:20:07;;;;;;;4.93;3.37;;;;;;;18.64;48.00;99570.31;4494050;31;35278;-63
2023/04/30 08:22:35;;;;;;;5.90;3.20;;;;;;;19.11;47.25;99572.31;4486928;31;32135;-65
2023/04/30 08:25:03;;;;;;;6.45;3.08;;;;;;;19.29;46.71;99572.06;4487745;31;33722;-64
2023/04/30 08:27:31;;;;;;;3.33;2.15;;;;;;;19.38;46.25;99572.88;4486866;31;33992;-64
2023/04/30 08:29:58;;;;;;;8.32;2.78;;;;;;;19.51;44.99;99571.28;4491418;31;33803;-64
2023/04/30 08:32:27;;;;;;;5.25;3.40;;;;;;;19.98;44.29;99564.97;4500685;31;34458;-62
2023/04/30 08:34:54;;;;;;;6.07;2.70;;;;;;;19.94;45.08;99563.66;4485722;31;34882;-62
2023/04/30 08:37:22;;;;;;;7.37;3.35;;;;;;;19.82;45.29;99567.78;4491282;31;33629;-63
2023/04/30 08:39:50;;;;;;;4.97;2.97;;;;;;;20.24;44.84;99561.91;4491379;31;33998;-62
2023/04/30 08:42:17;;;;;;;4.05;2.33;;;;;;;20.29;43.82;99560.50;4499689;31;33476;-62
2023/04/30 08:44:46;;;;;;;3.97;2.30;;;;;;;20.64;43.06;99568.06;4487834;31;33832;-62
2023/04/30 08:47:14;;;;;;;4.50;2.75;;;;;;;20.97;41.47;99559.59;4488116;31;33915;-62
2023/04/30 08:49:42;;;;;;;2.92;1.87;;;;;;;21.09;41.68;99562.66;4493987;31;34165;-62
2023/04/30 08:52:10;;;;;;;5.00;3.03;;;;;;;21.11;40.56;99561.44;4497953;31;33650;-62
2023/04/30 08:54:37;;;;;;;3.22;1.85;;;;;;;20.78;41.03;99565.56;4495333;31;33600;-63
2023/04/30 08:57:05;;;;;;;4.28;2.33;;;;;;;20.93;41.06;99567.28;4492052;31;33886;-62
2023/04/30 08:59:32;;;;;;;2.97;1.90;;;;;;;21.31;39.71;99553.56;4493902;31;34948;-62
2023/04/30 09:02:00;;;;;;;4.32;1.90;;;;;;;21.30;39.45;99556.47;4490631;31;33228;-62
2023/04/30 09:04:28;;;;;;;3.00;1.67;;;;;;;21.32;38.49;99559.87;4494828;31;33500;-62
2023/04/30 09:06:58;;;;;;;3.28;1.80;;;;;;;21.53;38.59;99559.13;4490358;31;33827;-62
2023/04/30 09:09:29;;;;;;;5.53;2.67;;;;;;;21.71;37.83;99556.84;4499276;31;35304;-62
2023/04/30 09:12:16;;;;;;;4.10;2.10;;;;;;;21.33;38.57;99558.84;4495610;31;33455;-62
2023/04/30 09:15:02;;;;;;;3.22;1.73;;;;;;;20.80;39.48;99555.31;4489600;31;33239;-63
2023/04/30 09:17:31;;;;;;;3.03;1.90;;;;;;;21.29;39.01;99566.53;4488625;31;33839;-63
2023/04/30 09:20:12;;;;;;;2.90;1.90;;;;;;;21.17;38.75;99560.69;4495514;31;35166;-63
2023/04/30 09:22:41;;;;;;;5.78;2.78;;;;;;;20.74;39.51;99562.38;4497613;31;32364;-62
2023/04/30 09:25:10;;;;;;;4.70;2.55;;;;;;;21.13;39.71;99562.12;4499709;31;36438;-63
2023/04/30 09:27:37;;;;;;;4.55;2.47;;;;;;;20.86;40.67;99551.87;4487768;31;34477;-62
2023/04/30 09:30:06;;;;;;;4.47;2.97;;;;;;;21.10;39.39;99553.50;4486028;31;34135;-63
2023/04/30 09:32:34;;;;;;;3.45;2.08;;;;;;;20.87;39.87;99542.69;4492156;31;32014;-63
2023/04/30 09:35:01;;;;;;;5.57;2.30;;;;;;;20.40;41.44;99555.50;4493848;31;33645;-62
2023/04/30 09:37:36;;;;;;;5.95;2.65;;;;;;;21.02;40.59;99548.97;4484704;31;33756;-62
2023/04/30 09:40:04;;;;;;;;;;;;;;;21.41;39.41;99545.13;4498968;31;33971;-61
2023/04/30 09:42:32;;;;;;;5.53;2.12;;;;;;;21.48;39.36;99545.25;4497624;31;34349;-62
2023/04/30 09:44:59;;;;;;;6.97;2.55;;;;;;;21.57;38.88;99542.22;4483838;31;33783;-62
2023/04/30 09:47:30;;;;;;;5.03;2.35;;;;;;;21.77;38.35;99538.91;4493893;31;35273;-62
2023/04/30 09:49:59;;;;;;;4.30;2.15;;;;;;;21.66;37.88;99542.09;4496937;31;34109;-62
2023/04/30 09:52:27;;;;;;;3.87;2.12;;;;;;;22.33;36.50;99539.06;4491732;31;33180;-62
2023/04/30 09:54:54;;;;;;;4.22;1.95;;;;;;;22.31;35.46;99539.28;4489074;31;34635;-63
2023/04/30 09:57:23;;;;;;;5.20;2.20;;;;;;;22.48;36.01;99534.38;4489979;31;34871;-62
2023/04/30 09:59:51;;;;;;;5.60;2.15;;;;;;;22.45;35.33;99540.22;4490626;31;32610;-63
2023/04/30 10:02:22;;;;;;;3.80;2.05;;;;;;;22.44;34.75;99534.97;4489899;31;34512;-63
2023/04/30 10:04:55;;;;;;;3.55;1.65;;;;;;;22.94;34.98;99535.81;4497954;31;32995;-63
2023/04/30 10:07:25;;;;;;;3.78;1.92;;;;;;;23.00;34.83;99535.00;4494183;31;33967;-62
2023/04/30 10:10:05;;;;;;;2.30;1.30;;;;;;;23.25;34.46;99535.37;4497248;31;32947;-63
2023/04/30 10:12:49;;;;;;;7.97;2.45;;;;;;;23.02;35.10;99530.22;4494288;31;33767;-63
2023/04/30 10:15:23;;;;;;;4.05;2.55;;;;;;;23.39;34.52;99534.38;4487565;31;33795;-62
2023/04/30 10:18:02;;;;;;;4.12;2.30;;;;;;;22.73;34.74;99534.81;4481894;31;34753;-62
2023/04/30 10:20:31;;;;;;;5.85;1.92;;;;;;;22.19;34.96;99527.22;4491835;31;34229;-63
2023/04/30 10:22:59;;;;;;;5.25;2.47;;;;;;;22.90;34.40;99518.97;4485728;31;33500;-61
2023/04/30 10:25:27;;;;;;;4.50;2.10;;;;;;;23.18;34.57;99520.84;4494658;31;33907;-62
2023/04/30 10:27:55;;;;;;;3.20;1.85;;;;;;;24.06;33.63;99526.44;4485462;31;33953;-61
2023/04/30 10:30:22;;;;;;;5.72;2.15;;;;;;;23.77;33.52;99517.53;4491156;31;33983;-62
2023/04/30 10:32:55;;;;;;;3.37;2.35;;;;;;;23.90;32.34;99524.94;4484462;31;33319;-64
2023/04/30 10:35:27;;;;;;;5.50;2.15;;;;;;;24.02;31.93;99527.91;4488168;31;35007;-63
2023/04/30 10:38:24;;;;;;;3.47;1.83;;;;;;;23.57;33.16;99520.19;4480741;31;35224;-62
2023/04/30 10:40:56;;;;;;;4.00;2.03;;;;;;;23.25;33.50;99516.25;4488619;31;36640;-64
2023/04/30 10:43:25;;;;;;;3.65;2.10;;;;;;;23.77;32.57;99527.63;4489403;31;34186;-62
2023/04/30 10:45:53;;;;;;;4.45;1.58;;;;;;;24.42;31.39;99517.88;4486102;31;34856;-64
2023/04/30 10:48:25;;;;;;;3.15;1.75;;;;;;;23.85;31.81;99522.84;4493491;31;33992;-64
2023/04/30 10:50:59;;;;;;;6.78;1.85;;;;;;;23.60;32.60;99513.47;4488060;31;33917;-62
2023/04/30 10:53:30;;;;;;;2.67;1.48;;;;;;;24.14;31.32;99520.75;4485256;31;34794;-63
2023/04/30 10:56:07;;;;;;;3.12;1.87;;;;;;;23.62;31.65;99519.56;4489266;31;34775;-62
2023/04/30 10:58:39;;;;;;;4.20;1.70;;;;;;;24.03;31.02;99519.50;4484089;31;33978;-63
2023/04/30 11:01:10;;;;;;;3.83;2.03;;;;;;;23.61;32.00;99517.88;4487829;31;35308;-62
2023/04/30 11:04:05;;;;;;;4.60;1.90;;;;;;;24.04;31.34;99520.31;4491507;31;33102;-62
2023/04/30 11:06:51;;;;;;;1.70;0.97;;;;;;;23.45;31.81;99502.69;4487134;31;33772;-63
2023/04/30 11:09:38;;;;;;;3.70;1.92;;;;;;;23.78;31.59;99494.62;4488802;31;33826;-63
2023/04/30 11:12:20;;;;;;;3.70;1.70;;;;;;;22.67;34.18;99505.59;4485840;31;34767;-62
2023/04/30 11:14:49;;;;;;;6.40;1.70;;;;;;;22.75;33.85;99499.13;4489435;31;32861;-62
2023/04/30 11:17:23;;;;;;;2.97;1.85;;;;;;;23.08;33.84;99503.97;4495252;31;33706;-62
2023/04/30 11:19:52;;;;;;;2.37;1.50;;;;;;;23.28;32.93;99504.94;4491409;31;33821;-62
2023/04/30 11:22:22;;;;;;;6.55;1.92;;;;;;;23.97;32.08;99505.81;4495351;31;33963;-62
2023/04/30 11:24:53;;;;;;;3.97;1.98;;;;;;;23.90;32.90;99514.84;4490297;31;33182;-62
2023/04/30 11:27:26;;;;;;;4.55;2.28;;;;;;;23.92;32.69;99518.22;4489133;31;33550;-63
2023/04/30 11:29:54;;;;;;;3.47;1.92;;;;;;;23.93;32.59;99516.31;4491243;31;33769;-64
2023/04/30 11:32:26;;;;;;;3.37;1.77;;;;;;;23.94;31.48;99513.37;4489252;31;34216;-63
2023/04/30 11:34:53;;;;;;;3.25;1.77;;;;;;;24.52;29.87;99514.72;4484958;31;34327;-63
2023/04/30 11:37:29;;;;;;;3.20;1.80;;;;;;;24.95;29.16;99506.91;4489050;31;34873;-63
2023/04/30 11:40:00;;;;;;;3.03;1.12;;;;;;;24.99;29.47;99508.16;4488355;31;33526;-62
2023/04/30 11:42:30;;;;;;;2.87;1.35;;;;;;;24.25;31.02;99517.44;4498809;31;33100;-63